Time;durP1;ratioP1;P1;durP2;ratioP2;P2;SDS_P1;SDS_P2;PMS_P1;PMS_P2;Temp;Humidity;BMP_temperature;BMP_pressure;BME280_temperature;BME280_humidity;BME280_pressure;Samples;Min_cycle;Max_cycle;Signal;HPM_P1;HPM_P2
2022/11/04 00:01:54;;;;;;;19.02;9.28;;;;;;;9.14;74.55;98653.55;1778739;81;21023;-44
2022/11/04 00:04:23;;;;;;;20.37;9.80;;;;;;;9.14;74.73;98648.30;1778770;81;20984;-52
2022/11/04 00:06:50;;;;;;;21.30;9.38;;;;;;;9.14;74.49;98645.67;1778746;80;20991;-55
2022/11/04 00:09:22;;;;;;;20.97;9.45;;;;;;;9.14;74.57;98644.36;1778854;81;20980;-49
2022/11/04 00:14:34;;;;;;;19.23;9.00;;;;;;;9.16;74.74;98641.17;1778763;81;20984;-55
2022/11/04 00:17:20;;;;;;;18.73;9.83;;;;;;;9.15;74.64;98637.33;1778977;81;21023;-48
2022/11/04 00:33:52;;;;;;;24.92;9.78;;;;;;;9.12;74.77;98618.69;1784970;80;21868;-45
2022/11/04 00:36:19;;;;;;;19.48;9.15;;;;;;;9.13;74.93;98621.70;1784775;80;21032;-56
2022/11/04 00:38:45;;;;;;;18.03;8.63;;;;;;;9.06;75.22;98614.27;1784896;80;21031;-47
2022/11/04 00:41:26;;;;;;;19.55;9.38;;;;;;;9.09;75.17;98616.72;1784760;80;20977;-52
2022/11/04 00:44:04;;;;;;;21.40;9.78;;;;;;;9.02;75.58;98605.74;1784752;80;20999;-46
2022/11/04 00:46:31;;;;;;;22.22;9.38;;;;;;;9.06;75.63;98605.09;1784668;80;21588;-47
2022/11/04 00:48:57;;;;;;;22.30;9.70;;;;;;;9.08;75.46;98603.22;1784629;80;21028;-51
2022/11/04 00:51:23;;;;;;;19.37;9.30;;;;;;;9.09;75.57;98587.39;1784597;80;21031;-44
2022/11/04 00:53:50;;;;;;;17.65;9.05;;;;;;;9.10;75.57;98585.16;1784665;80;20998;-52
2022/11/04 00:56:15;;;;;;;20.52;9.15;;;;;;;9.12;75.41;98581.14;1784655;80;20991;-49
2022/11/04 00:58:41;;;;;;;21.45;8.63;;;;;;;9.14;75.51;98583.20;1784677;80;20995;-61
2022/11/04 01:01:16;;;;;;;23.45;9.50;;;;;;;9.13;75.47;98578.88;1784761;80;20991;-40
2022/11/04 01:03:41;;;;;;;20.25;10.13;;;;;;;9.14;75.67;98578.78;1784077;80;21070;-49
2022/11/04 01:06:07;;;;;;;20.23;8.88;;;;;;;9.17;75.47;98579.92;1784686;80;21634;-44
2022/11/04 01:08:33;;;;;;;19.32;8.93;;;;;;;9.13;75.59;98578.42;1784786;80;21993;-40
2022/11/04 01:11:05;;;;;;;19.37;8.93;;;;;;;9.14;75.62;98574.02;1784668;80;21002;-53
2022/11/04 01:13:32;;;;;;;16.97;9.18;;;;;;;9.07;76.11;98566.98;1784026;80;21528;-51
2022/11/04 01:16:02;;;;;;;20.83;9.20;;;;;;;9.14;75.80;98567.45;1756516;80;20964;-45
2022/11/04 01:18:28;;;;;;;28.42;9.35;;;;;;;9.10;76.04;98562.03;1784472;80;21696;-45
2022/11/04 01:21:01;;;;;;;18.65;8.73;;;;;;;9.15;75.98;98561.25;1784617;80;20971;-49
2022/11/04 01:23:28;;;;;;;18.15;8.23;;;;;;;9.16;75.83;98562.48;1783137;80;21026;-46
2022/11/04 01:25:53;;;;;;;21.62;9.33;;;;;;;9.08;76.19;98559.50;1778963;81;21489;-46
2022/11/04 01:28:19;;;;;;;16.97;8.70;;;;;;;9.12;76.07;98555.73;1778893;81;20987;-52
2022/11/04 01:30:45;;;;;;;16.45;8.73;;;;;;;9.13;76.37;98557.44;1778933;81;21475;-54
2022/11/04 01:33:12;;;;;;;22.37;9.15;;;;;;;9.11;76.15;98559.29;1778953;80;21823;-53
2022/11/04 01:35:37;;;;;;;18.43;9.47;;;;;;;9.14;76.10;98556.48;1779193;81;20991;-58
2022/11/04 01:38:03;;;;;;;21.00;8.98;;;;;;;9.14;76.15;98559.11;1778921;81;21520;-47
2022/11/04 01:40:29;;;;;;;22.17;9.63;;;;;;;9.17;76.21;98547.61;1778866;81;21489;-49
2022/11/04 01:42:55;;;;;;;24.87;9.55;;;;;;;9.19;76.14;98548.34;1778894;81;21477;-50
2022/11/04 01:45:22;;;;;;;19.77;8.85;;;;;;;9.15;76.31;98543.76;1778800;81;21449;-54
2022/11/04 01:48:08;;;;;;;16.35;9.30;;;;;;;9.20;76.11;98552.20;1779041;81;21012;-55
2022/11/04 01:50:35;;;;;;;20.08;9.55;;;;;;;9.21;76.15;98552.55;1777925;80;20991;-54
2022/11/04 01:53:12;;;;;;;18.73;9.10;;;;;;;9.23;76.37;98539.34;1778983;81;20972;-50
2022/11/04 01:55:45;;;;;;;;;;;;;;;9.20;76.21;98544.33;1780239;81;21473;-45
2022/11/04 01:58:15;;;;;;;19.77;9.98;;;;;;;9.18;76.70;98533.05;1778843;81;20097;-51
2022/11/04 02:00:42;;;;;;;19.67;9.00;;;;;;;9.19;76.18;98523.43;1778832;81;20960;-45
2022/11/04 02:03:16;;;;;;;20.15;9.98;;;;;;;9.16;76.56;98523.13;1778844;81;20980;-44
2022/11/04 02:05:43;;;;;;;20.25;9.85;;;;;;;9.15;76.67;98521.46;1778875;81;21034;-50
2022/11/04 02:08:11;;;;;;;24.02;9.85;;;;;;;9.16;76.75;98514.42;1778977;81;20995;-52
2022/11/04 02:10:40;;;;;;;20.85;9.23;;;;;;;9.18;76.54;98513.38;1778864;81;21330;-52
2022/11/04 02:13:07;;;;;;;21.33;9.23;;;;;;;9.18;76.57;98512.55;1778850;80;20994;-58
2022/11/04 02:15:41;;;;;;;21.23;9.50;;;;;;;9.17;76.76;98516.96;1762430;81;20963;-42
2022/11/04 02:18:33;;;;;;;22.67;9.38;;;;;;;9.16;76.73;98512.64;1752909;82;20987;-46
2022/11/04 02:21:30;;;;;;;20.37;9.90;;;;;;;9.14;76.91;98506.65;1725082;83;21444;-48
2022/11/04 02:24:10;;;;;;;20.72;9.08;;;;;;;9.17;76.90;98498.59;1725503;82;21493;-48
2022/11/04 02:26:58;;;;;;;19.55;9.80;;;;;;;9.15;77.14;98505.72;1724900;83;20991;-50
2022/11/04 02:29:46;;;;;;;20.97;9.80;;;;;;;9.13;77.34;98491.87;1725556;83;21178;-49
2022/11/04 02:32:47;;;;;;;22.65;9.13;;;;;;;9.09;77.52;98498.22;1725558;83;21002;-55
2022/11/04 02:35:19;;;;;;;21.93;9.65;;;;;;;9.13;77.30;98494.48;1725381;83;21026;-46
2022/11/04 02:38:23;;;;;;;22.65;9.95;;;;;;;9.12;77.40;98482.78;1725447;83;20998;-46
2022/11/04 02:41:26;;;;;;;16.85;8.98;;;;;;;9.14;77.43;98480.42;1725509;83;20979;-43
2022/11/04 02:44:32;;;;;;;18.85;9.78;;;;;;;9.15;77.43;98478.19;1725428;83;21084;-47
2022/11/04 02:47:02;;;;;;;24.02;9.75;;;;;;;9.10;78.16;98471.55;1725732;83;21539;-47
2022/11/04 02:49:42;;;;;;;23.65;10.18;;;;;;;9.14;77.87;98459.91;1725536;83;21043;-49
2022/11/04 02:52:11;;;;;;;21.23;9.88;;;;;;;9.14;77.70;98458.12;1706591;79;21156;-43
2022/11/04 02:54:52;;;;;;;27.87;10.25;;;;;;;9.16;77.77;98452.78;1702071;84;21045;-52
2022/11/04 02:57:23;;;;;;;17.98;9.65;;;;;;;9.16;78.13;98447.54;1717465;82;21001;-51
2022/11/04 03:00:06;;;;;;;17.27;9.13;;;;;;;9.18;77.76;98439.94;1722485;83;21046;-51
2022/11/04 03:02:45;;;;;;;22.42;9.85;;;;;;;9.15;78.14;98429.66;1716435;83;21494;-46
2022/11/04 03:05:24;;;;;;;27.13;10.43;;;;;;;9.17;78.32;98430.40;1722406;83;21427;-48
2022/11/04 03:07:53;;;;;;;17.50;9.83;;;;;;;9.17;78.37;98423.84;1721567;82;21037;-53
2022/11/04 03:10:36;;;;;;;20.37;9.58;;;;;;;9.13;78.71;98427.60;1722391;83;21014;-59
2022/11/04 03:13:12;;;;;;;21.30;9.30;;;;;;;9.12;78.79;98428.53;1722367;83;21010;-53
2022/11/04 03:15:43;;;;;;;21.00;9.63;;;;;;;9.12;78.81;98426.38;1722637;83;21005;-50
2022/11/04 03:18:32;;;;;;;20.23;9.75;;;;;;;9.15;78.72;98429.66;1722452;82;21013;-48
2022/11/04 03:21:02;;;;;;;19.17;10.15;;;;;;;9.10;79.17;98433.51;1722351;82;21001;-46
2022/11/04 03:23:29;;;;;;;23.75;10.20;;;;;;;9.07;79.20;98435.84;1722432;82;21021;-57
2022/11/04 03:26:00;;;;;;;19.82;10.32;;;;;;;9.05;79.31;98433.78;1722382;82;20998;-41
2022/11/04 03:29:03;;;;;;;20.20;10.53;;;;;;;9.11;78.99;98430.77;1722248;81;21009;-51
2022/11/04 03:31:50;;;;;;;15.03;9.95;;;;;;;9.10;79.31;98422.54;1722335;83;21499;-50
2022/11/04 03:34:16;;;;;;;19.50;10.43;;;;;;;9.09;79.39;98424.78;1722706;83;21002;-56
2022/11/04 03:36:41;;;;;;;20.72;10.43;;;;;;;9.09;79.39;98424.78;1722491;82;21506;-52
2022/11/04 03:39:07;;;;;;;21.95;9.60;;;;;;;9.02;79.77;98416.48;1722429;82;21606;-50
2022/11/04 03:41:42;;;;;;;26.40;10.72;;;;;;;9.02;79.77;98416.48;1722320;82;21049;-52
2022/11/04 03:44:07;;;;;;;24.40;11.05;;;;;;;9.06;79.74;98413.64;1721169;82;20998;-52
2022/11/04 03:46:34;;;;;;;20.48;10.40;;;;;;;9.06;79.79;98405.77;1722514;83;21526;-56
2022/11/04 03:49:02;;;;;;;19.23;10.15;;;;;;;9.04;80.02;98408.52;1722117;83;21084;-45
2022/11/04 03:51:27;;;;;;;17.90;10.80;;;;;;;9.07;79.74;98412.23;1718885;82;21073;-53
2022/11/04 03:53:54;;;;;;;20.60;10.48;;;;;;;9.07;79.95;98410.09;1706763;84;21006;-49
2022/11/04 03:57:06;;;;;;;23.00;10.63;;;;;;;9.02;80.57;98416.48;1683588;84;20999;-48
2022/11/04 04:00:06;;;;;;;24.72;11.18;;;;;;;9.07;80.18;98416.17;1710141;84;21599;-46
2022/11/04 04:02:49;;;;;;;19.98;10.98;;;;;;;9.02;80.36;98415.16;1713576;84;21021;-47
2022/11/04 04:05:51;;;;;;;21.42;11.45;;;;;;;9.05;79.93;98418.05;1713594;84;21009;-54
2022/11/04 04:08:37;;;;;;;18.82;9.93;;;;;;;9.06;80.18;98417.58;1713851;84;20971;-50
2022/11/04 04:11:41;;;;;;;20.17;11.22;;;;;;;9.04;80.82;98412.45;1713551;82;21361;-48
2022/11/04 04:14:40;;;;;;;26.33;11.12;;;;;;;9.03;80.92;98409.44;1713414;84;21045;-58
2022/11/04 04:17:30;;;;;;;23.52;11.12;;;;;;;9.01;81.09;98398.20;1713806;84;21049;-46
2022/11/04 04:20:00;;;;;;;26.02;11.45;;;;;;;9.06;80.68;98399.21;1713770;82;21014;-49
2022/11/04 04:22:59;;;;;;;20.68;10.88;;;;;;;9.08;80.75;98400.81;1712584;83;20990;-48
2022/11/04 04:28:14;;;;;;;22.98;11.33;;;;;;;9.06;81.02;98396.14;1713948;84;20982;-44
2022/11/04 04:30:41;;;;;;;25.05;10.85;;;;;;;9.04;81.60;98391.47;1713852;84;20974;-46
2022/11/04 04:33:11;;;;;;;20.10;10.80;;;;;;;9.07;81.30;98392.56;1714068;84;21395;-50
2022/11/04 04:35:48;;;;;;;22.02;10.60;;;;;;;9.09;81.21;98382.81;1713784;84;21499;-49
2022/11/04 04:47:10;;;;;;;26.17;11.15;;;;;;;9.19;81.23;98383.09;1713965;84;21447;-49
2022/11/04 04:49:36;;;;;;;26.55;11.65;;;;;;;9.19;81.21;98385.23;1713345;84;20998;-52
2022/11/04 04:52:05;;;;;;;23.30;11.00;;;;;;;9.19;81.21;98384.40;1713816;82;21531;-55
2022/11/04 04:54:31;;;;;;;22.50;11.12;;;;;;;9.20;81.19;98388.69;1714042;83;21795;-46
2022/11/04 04:56:56;;;;;;;20.32;12.10;;;;;;;9.20;81.10;98386.93;1713961;83;20994;-49
2022/11/04 04:59:22;;;;;;;24.55;11.90;;;;;;;9.18;81.24;98384.02;1714039;84;20994;-50
2022/11/04 05:01:48;;;;;;;20.20;10.53;;;;;;;9.18;81.45;98386.16;1713982;84;20991;-44
2022/11/04 05:04:14;;;;;;;23.77;11.88;;;;;;;9.20;81.26;98389.55;1714015;84;21006;-45
2022/11/04 05:06:40;;;;;;;21.68;11.38;;;;;;;9.18;81.81;98381.39;1713998;84;20978;-46
2022/11/04 05:09:06;;;;;;;25.65;11.97;;;;;;;9.19;82.33;98377.36;1713994;84;21045;-43
2022/11/04 05:11:32;;;;;;;25.85;11.80;;;;;;;9.12;82.97;98372.62;1713932;82;21014;-47
2022/11/04 05:13:57;;;;;;;26.60;12.82;;;;;;;9.11;83.77;98362.57;1714003;83;21006;-49
2022/11/04 05:16:23;;;;;;;26.12;12.15;;;;;;;9.13;83.25;98350.67;1714023;82;21045;-52
2022/11/04 05:18:51;;;;;;;25.75;13.43;;;;;;;9.17;83.35;98356.95;1714074;84;21050;-52
2022/11/04 05:21:16;;;;;;;;;;;;;;;9.21;82.80;98357.11;1716556;84;21515;-57
2022/11/04 05:23:42;;;;;;;27.30;12.63;;;;;;;9.20;83.24;98354.59;1714043;83;20133;-50
2022/11/04 05:26:09;;;;;;;25.40;12.20;;;;;;;9.19;83.36;98355.06;1714045;84;21522;-52
2022/11/04 05:28:34;;;;;;;21.80;12.80;;;;;;;9.15;83.48;98351.41;1714077;82;21483;-44
2022/11/04 05:31:05;;;;;;;20.72;12.30;;;;;;;9.13;83.66;98350.67;1714340;82;21013;-44
2022/11/04 05:33:32;;;;;;;23.32;12.30;;;;;;;9.18;83.13;98344.66;1727817;83;21598;-45
2022/11/04 05:36:14;;;;;;;19.45;11.97;;;;;;;9.19;83.63;98347.20;1722246;83;21026;-46
2022/11/04 05:38:41;;;;;;;22.85;13.15;;;;;;;9.19;83.58;98347.67;1722178;83;20979;-49
2022/11/04 05:41:10;;;;;;;18.85;11.97;;;;;;;9.21;83.46;98348.41;1722156;83;20998;-55
2022/11/04 05:43:37;;;;;;;28.65;13.32;;;;;;;9.22;83.98;98346.14;1722267;83;21006;-45
2022/11/04 05:46:03;;;;;;;32.55;13.00;;;;;;;9.21;83.78;98350.55;1722721;83;20975;-48
2022/11/04 05:48:29;;;;;;;24.98;12.13;;;;;;;9.23;83.71;98347.84;1722255;83;21790;-48
2022/11/04 05:50:55;;;;;;;22.05;11.70;;;;;;;9.25;83.94;98345.13;1722274;83;21337;-53
2022/11/04 05:53:21;;;;;;;21.62;12.58;;;;;;;9.24;84.28;98350.84;1712549;81;21032;-45
2022/11/04 05:55:47;;;;;;;26.95;12.58;;;;;;;9.28;84.05;98351.45;1709155;84;20996;-43
2022/11/04 05:58:12;;;;;;;23.85;12.25;;;;;;;9.31;83.60;98356.03;1709165;84;21030;-55
2022/11/04 06:00:38;;;;;;;24.12;13.10;;;;;;;9.32;83.37;98347.23;1709159;84;20964;-54
2022/11/04 06:03:04;;;;;;;20.37;12.13;;;;;;;9.34;83.52;98355.84;1709204;82;21003;-47
2022/11/04 06:05:30;;;;;;;24.00;12.60;;;;;;;9.36;83.43;98351.81;1709170;84;21601;-44
2022/11/04 06:07:56;;;;;;;25.27;13.78;;;;;;;9.37;83.20;98357.45;1709470;82;21473;-43
2022/11/04 06:10:23;;;;;;;26.60;13.35;;;;;;;9.38;83.14;98359.95;1709188;83;21003;-59
2022/11/04 06:12:49;;;;;;;31.73;13.45;;;;;;;9.38;83.19;98359.11;1709320;83;20991;-46
2022/11/04 06:15:15;;;;;;;26.02;12.75;;;;;;;9.33;83.38;98360.73;1709210;82;21035;-51
2022/11/04 06:17:41;;;;;;;21.23;13.75;;;;;;;9.34;83.10;98366.82;1709393;83;20972;-44
2022/11/04 06:20:08;;;;;;;25.82;13.30;;;;;;;9.35;83.01;98368.48;1709174;83;21043;-52
2022/11/04 06:22:34;;;;;;;33.50;14.58;;;;;;;9.29;83.35;98355.30;1709263;82;21508;-49
2022/11/04 06:25:00;;;;;;;26.07;12.95;;;;;;;9.34;83.67;98361.58;1709091;82;20987;-42
2022/11/04 06:27:25;;;;;;;26.93;13.38;;;;;;;9.35;83.17;98366.73;1709343;82;21035;-44
2022/11/04 06:29:52;;;;;;;28.92;12.88;;;;;;;9.36;83.05;98376.74;1709148;84;21015;-54
2022/11/04 06:32:18;;;;;;;27.65;13.88;;;;;;;9.29;83.15;98374.14;1709413;84;20991;-54
2022/11/04 06:34:45;;;;;;;25.75;12.23;;;;;;;9.30;83.29;98367.97;1709142;84;20959;-52
2022/11/04 06:37:11;;;;;;;25.40;13.68;;;;;;;9.33;83.24;98377.80;1709211;82;21547;-50
2022/11/04 06:39:37;;;;;;;28.50;13.05;;;;;;;9.34;83.17;98375.52;1709157;84;21349;-50
2022/11/04 06:42:04;;;;;;;21.80;13.30;;;;;;;9.36;83.01;98365.77;1709268;84;21049;-51
2022/11/04 06:44:29;;;;;;;25.05;13.08;;;;;;;9.44;83.22;98367.05;1709178;84;21004;-48
2022/11/04 06:46:55;;;;;;;25.12;12.95;;;;;;;9.35;82.92;98357.55;1709165;82;21035;-51
2022/11/04 06:49:22;;;;;;;24.07;12.88;;;;;;;9.39;83.06;98354.25;1709171;84;20999;-51
2022/11/04 06:51:49;;;;;;;26.55;13.03;;;;;;;9.37;83.08;98354.83;1709099;84;21613;-44
2022/11/04 06:54:16;;;;;;;28.13;12.57;;;;;;;9.40;82.99;98355.91;1726599;82;21038;-56
2022/11/04 06:56:43;;;;;;;26.25;12.95;;;;;;;9.39;83.00;98360.33;1726923;81;21480;-49
2022/11/04 06:59:15;;;;;;;20.97;12.98;;;;;;;9.41;82.74;98358.92;1726980;83;21119;-49
2022/11/04 07:01:42;;;;;;;26.82;13.32;;;;;;;9.41;82.81;98347.11;1726328;82;20974;-52
2022/11/04 07:04:09;;;;;;;25.97;12.93;;;;;;;9.46;82.73;98348.97;1726702;83;20994;-49
2022/11/04 07:06:34;;;;;;;19.32;11.35;;;;;;;9.44;82.76;98350.86;1726916;82;20979;-49
2022/11/04 07:09:02;;;;;;;21.85;12.47;;;;;;;9.46;82.74;98345.03;1726879;83;21471;-44
2022/11/04 07:11:31;;;;;;;26.45;13.48;;;;;;;9.52;82.48;98349.87;1726946;82;20990;-43
2022/11/04 07:13:57;;;;;;;23.15;12.70;;;;;;;9.47;82.56;98349.32;1717802;83;20976;-56
2022/11/04 07:16:23;;;;;;;22.70;12.50;;;;;;;9.55;82.40;98349.67;1709165;83;21011;-52
2022/11/04 07:18:50;;;;;;;20.43;12.15;;;;;;;9.54;82.45;98345.35;1717040;83;21083;-49
2022/11/04 07:21:17;;;;;;;20.92;12.40;;;;;;;9.60;82.20;98347.59;1707644;83;21489;-43
2022/11/04 07:23:42;;;;;;;25.62;11.93;;;;;;;9.59;82.13;98339.33;1707193;84;21540;-42
2022/11/04 07:26:10;;;;;;;23.77;12.50;;;;;;;9.56;82.22;98341.32;1707280;84;20984;-40
2022/11/04 07:28:36;;;;;;;25.68;12.75;;;;;;;9.60;82.11;98345.41;1707037;84;21168;-40
2022/11/04 07:31:05;;;;;;;40.28;13.98;;;;;;;9.59;82.01;98343.75;1707343;83;20971;-52
2022/11/04 07:33:32;;;;;;;21.37;12.68;;;;;;;9.60;82.13;98330.98;1707205;84;21512;-40
2022/11/04 07:36:05;;;;;;;23.73;12.88;;;;;;;9.57;82.14;98338.59;1707127;84;21967;-47
2022/11/04 07:38:30;;;;;;;23.90;13.20;;;;;;;9.64;82.10;98336.86;1706388;83;21015;-50
2022/11/04 07:40:57;;;;;;;24.07;13.20;;;;;;;9.64;81.97;98330.30;1707317;83;21040;-52
2022/11/04 07:43:23;;;;;;;27.73;13.27;;;;;;;9.69;81.86;98321.66;1707671;84;21003;-57
2022/11/04 07:46:05;;;;;;;31.35;13.18;;;;;;;9.68;81.91;98329.14;1707318;83;21063;-42
2022/11/04 07:48:31;;;;;;;21.42;12.73;;;;;;;9.76;81.70;98321.12;1707478;84;21011;-45
2022/11/04 07:50:59;;;;;;;29.30;13.62;;;;;;;9.75;81.73;98319.91;1706761;84;21528;-45
2022/11/04 07:53:26;;;;;;;30.77;13.68;;;;;;;9.79;81.83;98318.78;1707303;84;21064;-46
2022/11/04 07:55:54;;;;;;;25.90;12.55;;;;;;;9.86;81.75;98316.56;1707418;84;21445;-40
2022/11/04 07:58:21;;;;;;;25.20;13.70;;;;;;;9.84;81.55;98318.01;1707094;84;21566;-52
2022/11/04 08:00:47;;;;;;;25.92;13.55;;;;;;;9.83;81.84;98316.31;1707517;84;21035;-43
2022/11/04 08:03:13;;;;;;;23.70;13.80;;;;;;;9.87;81.42;98316.47;1707433;83;21003;-48
2022/11/04 08:05:39;;;;;;;26.30;14.10;;;;;;;9.88;81.55;98308.97;1706848;84;21079;-51
2022/11/04 08:08:05;;;;;;;23.45;13.48;;;;;;;9.89;81.47;98309.80;1707144;84;21497;-46
2022/11/04 08:10:31;;;;;;;28.40;13.75;;;;;;;9.92;81.49;98306.97;1707539;84;21534;-49
2022/11/04 08:12:56;;;;;;;23.05;12.55;;;;;;;9.95;81.26;98304.98;1707411;83;21024;-48
2022/11/04 08:15:22;;;;;;;27.05;13.55;;;;;;;9.95;81.49;98301.04;1707487;84;21003;-43
2022/11/04 08:17:48;;;;;;;22.25;12.85;;;;;;;10.04;81.30;98300.02;1707356;84;21020;-53
2022/11/04 08:20:14;;;;;;;25.17;13.13;;;;;;;10.08;81.03;98294.95;1707402;84;20984;-44
2022/11/04 08:22:40;;;;;;;26.57;13.38;;;;;;;10.10;80.91;98304.39;1707421;84;21087;-48
2022/11/04 08:25:06;;;;;;;23.85;12.20;;;;;;;10.13;80.92;98295.45;1707389;83;21521;-49
2022/11/04 08:27:33;;;;;;;27.73;12.70;;;;;;;10.14;80.72;98301.08;1707323;84;21008;-48
2022/11/04 08:29:59;;;;;;;25.45;14.13;;;;;;;10.16;80.48;98297.39;1707522;84;21012;-51
2022/11/04 08:32:24;;;;;;;29.50;12.80;;;;;;;10.19;80.30;98295.04;1707404;84;21040;-47
2022/11/04 08:34:50;;;;;;;26.42;13.05;;;;;;;10.24;80.47;98292.08;1707398;84;21027;-51
2022/11/04 08:37:16;;;;;;;21.25;12.68;;;;;;;10.26;80.27;98286.23;1707159;84;21115;-52
2022/11/04 08:39:43;;;;;;;22.87;12.20;;;;;;;10.29;79.90;98284.23;1707255;84;21017;-44
2022/11/04 08:42:09;;;;;;;20.20;12.85;;;;;;;10.36;79.90;98300.45;1707335;84;20984;-54
2022/11/04 08:44:35;;;;;;;22.60;12.23;;;;;;;10.30;79.59;98292.50;1707416;84;21004;-52
2022/11/04 08:47:03;;;;;;;28.75;13.43;;;;;;;10.35;79.65;98289.56;1707754;84;21516;-56
2022/11/04 08:49:28;;;;;;;22.37;11.85;;;;;;;10.34;79.51;98297.92;1707554;84;21007;-42
2022/11/04 08:51:59;;;;;;;25.00;12.63;;;;;;;10.32;79.40;98289.31;1707400;84;20999;-53
2022/11/04 08:54:26;;;;;;;23.15;12.73;;;;;;;10.33;79.43;98287.06;1707330;83;20996;-53
2022/11/04 08:56:52;;;;;;;25.50;12.18;;;;;;;10.37;79.78;98295.09;1707560;84;21072;-51
2022/11/04 08:59:18;;;;;;;34.07;16.77;;;;;;;10.42;79.70;98298.69;1707744;84;21011;-52
2022/11/04 09:01:44;;;;;;;25.52;13.85;;;;;;;10.43;79.45;98288.56;1707452;84;21600;-53
2022/11/04 09:04:11;;;;;;;22.42;13.40;;;;;;;10.42;79.45;98303.12;1707398;84;21497;-49
2022/11/04 09:06:41;;;;;;;22.67;12.90;;;;;;;10.40;79.51;98297.13;1707540;84;21007;-51
2022/11/04 09:09:11;;;;;;;25.52;13.38;;;;;;;10.41;79.66;98290.95;1707332;84;21015;-49
2022/11/04 09:11:41;;;;;;;25.37;13.83;;;;;;;10.40;79.86;98293.19;1685393;84;21004;-43
2022/11/04 09:14:07;;;;;;;31.37;14.13;;;;;;;10.40;79.89;98290.08;1707454;84;21015;-50
2022/11/04 09:16:35;;;;;;;26.50;14.28;;;;;;;10.42;79.92;98296.06;1707658;84;21003;-55
2022/11/04 09:19:02;;;;;;;21.68;13.70;;;;;;;10.41;80.10;98298.83;1707489;83;21012;-55
2022/11/04 09:21:28;;;;;;;30.37;13.98;;;;;;;10.36;80.31;98293.40;1707298;84;21039;-49
2022/11/04 09:23:54;;;;;;;24.37;13.62;;;;;;;10.40;80.33;98283.99;1707393;84;21086;-43
2022/11/04 09:26:22;;;;;;;27.85;14.35;;;;;;;10.41;80.51;98290.95;1707389;84;21003;-48
2022/11/04 09:28:54;;;;;;;24.15;13.40;;;;;;;10.43;80.62;98285.09;1707427;84;21007;-47
2022/11/04 09:31:20;;;;;;;23.65;13.13;;;;;;;10.43;80.75;98279.36;1707398;84;21056;-46
2022/11/04 09:33:46;;;;;;;27.90;13.72;;;;;;;10.47;81.12;98276.04;1707403;84;21132;-50
2022/11/04 09:36:13;;;;;;;34.25;13.68;;;;;;;10.50;81.02;98266.63;1706906;83;21039;-50
2022/11/04 09:38:41;;;;;;;28.67;13.45;;;;;;;10.54;81.47;98266.77;1706422;84;21008;-50
2022/11/04 09:41:29;;;;;;;26.33;13.72;;;;;;;10.54;81.22;98264.14;1707330;84;20992;-48
2022/11/04 09:44:15;;;;;;;34.38;14.85;;;;;;;10.58;80.91;98260.82;1707046;83;21028;-48
2022/11/04 09:46:43;;;;;;;24.10;14.43;;;;;;;10.62;80.73;98260.47;1705092;84;22180;-57
2022/11/04 09:49:12;;;;;;;26.07;14.23;;;;;;;10.70;80.54;98258.14;1706228;84;21119;-50
2022/11/04 09:51:40;;;;;;;37.33;13.88;;;;;;;10.72;79.92;98258.87;1706299;83;21242;-56
2022/11/04 09:54:30;;;;;;;31.95;14.38;;;;;;;10.74;79.53;98256.96;1690333;83;21607;-49
2022/11/04 09:56:58;;;;;;;20.92;11.75;;;;;;;10.73;79.58;98255.30;1716720;83;21022;-50
2022/11/04 09:59:28;;;;;;;21.50;11.15;;;;;;;10.69;79.41;98250.36;1718031;83;21086;-44
2022/11/04 10:02:12;;;;;;;26.30;15.03;;;;;;;10.69;79.27;98245.93;1717947;83;21011;-46
2022/11/04 10:05:02;;;;;;;22.02;13.18;;;;;;;10.82;79.51;98237.98;1718044;83;21520;-44
2022/11/04 10:07:54;;;;;;;26.00;12.85;;;;;;;10.94;79.25;98244.16;1717931;83;21042;-57
2022/11/04 10:10:56;;;;;;;24.63;13.15;;;;;;;11.02;79.06;98240.95;1718074;83;21547;-52
2022/11/04 10:13:44;;;;;;;26.42;14.50;;;;;;;11.03;78.51;98240.02;1707879;83;21496;-47
2022/11/04 10:16:48;;;;;;;31.02;15.93;;;;;;;11.02;78.11;98239.16;1718070;83;21011;-45
2022/11/04 10:19:43;;;;;;;25.65;14.58;;;;;;;11.00;77.96;98250.27;1718098;83;20995;-46
2022/11/04 10:22:29;;;;;;;27.87;13.68;;;;;;;11.01;77.99;98245.38;1689666;85;21019;-46
2022/11/04 10:25:00;;;;;;;20.92;13.13;;;;;;;11.03;78.04;98247.91;1689901;85;21022;-52
2022/11/04 10:27:34;;;;;;;22.37;12.88;;;;;;;10.96;77.76;98254.09;1680897;84;20987;-54
2022/11/04 10:30:05;;;;;;;28.20;13.65;;;;;;;10.93;77.76;98251.22;1666314;86;21100;-50
2022/11/04 10:32:44;;;;;;;26.82;14.33;;;;;;;10.93;78.04;98240.70;1666256;84;21092;-55
2022/11/04 10:35:21;;;;;;;28.02;15.10;;;;;;;10.97;78.21;98241.31;1666074;86;20995;-44
2022/11/04 10:37:51;;;;;;;25.32;13.58;;;;;;;11.04;78.36;98242.53;1666480;86;21007;-47
2022/11/04 10:40:35;;;;;;;30.72;14.28;;;;;;;11.09;78.10;98236.92;1642725;86;21533;-49
2022/11/04 10:43:06;;;;;;;27.25;13.65;;;;;;;11.17;78.20;98241.60;1666205;86;21484;-44
2022/11/04 10:45:38;;;;;;;19.70;12.85;;;;;;;11.19;77.31;98243.64;1666384;86;21019;-55
2022/11/04 10:48:08;;;;;;;23.95;12.98;;;;;;;11.26;77.60;98240.91;1665844;86;21014;-49
2022/11/04 10:50:38;;;;;;;23.45;12.55;;;;;;;11.28;77.05;98246.92;1665393;86;21016;-46
2022/11/04 10:53:24;;;;;;;22.73;12.00;;;;;;;11.39;77.21;98240.83;1666375;85;21520;-44
2022/11/04 10:56:26;;;;;;;24.80;11.95;;;;;;;11.45;77.02;98235.12;1666264;86;21019;-45
2022/11/04 10:58:54;;;;;;;20.37;13.13;;;;;;;11.52;76.94;98229.27;1678040;85;21042;-51
2022/11/04 11:01:31;;;;;;;19.07;11.90;;;;;;;11.61;76.74;98224.27;1694270;85;20991;-41
2022/11/04 11:03:57;;;;;;;20.23;12.33;;;;;;;11.63;76.18;98222.35;1693233;84;20987;-48
2022/11/04 11:06:33;;;;;;;19.87;11.93;;;;;;;11.71;76.37;98218.17;1694313;85;21030;-43
2022/11/04 11:09:12;;;;;;;22.73;11.90;;;;;;;11.65;75.53;98222.58;1694179;85;21014;-50
2022/11/04 11:11:50;;;;;;;22.32;12.05;;;;;;;11.69;75.75;98212.65;1694096;85;20987;-55
2022/11/04 11:14:33;;;;;;;23.75;12.65;;;;;;;11.74;75.90;98216.26;1694028;85;21575;-48
2022/11/04 11:17:21;;;;;;;21.87;12.13;;;;;;;11.79;75.82;98210.99;1694131;85;21007;-50
2022/11/04 11:20:01;;;;;;;23.45;13.05;;;;;;;11.80;75.61;98209.19;1693739;84;21017;-50
2022/11/04 11:22:38;;;;;;;21.50;11.90;;;;;;;11.83;75.68;98211.11;1693575;85;21687;-45
2022/11/04 11:25:31;;;;;;;21.25;12.65;;;;;;;11.82;75.41;98211.22;1694283;85;20979;-43
2022/11/04 11:28:02;;;;;;;27.65;12.33;;;;;;;11.85;75.60;98203.92;1694027;85;21009;-48
2022/11/04 11:30:41;;;;;;;24.18;12.23;;;;;;;11.85;75.79;98203.09;1703991;81;20956;-50
2022/11/04 11:33:19;;;;;;;26.68;12.07;;;;;;;11.87;75.95;98199.85;1738459;81;20974;-57
2022/11/04 11:35:52;;;;;;;20.70;12.03;;;;;;;11.85;75.63;98198.65;1740977;81;20940;-47
2022/11/04 11:38:26;;;;;;;24.72;12.10;;;;;;;11.83;75.68;98199.25;1736970;81;20958;-54
2022/11/04 11:41:08;;;;;;;22.90;12.35;;;;;;;11.86;75.99;98199.02;1761507;81;20972;-50
2022/11/04 11:43:38;;;;;;;26.48;12.43;;;;;;;11.92;75.72;98195.09;1720891;83;21579;-53
2022/11/04 11:46:04;;;;;;;18.67;11.90;;;;;;;11.98;75.92;98197.73;1749745;81;21413;-45
2022/11/04 11:48:43;;;;;;;27.98;13.95;;;;;;;12.00;76.02;98193.17;1732779;81;20973;-48
2022/11/04 11:51:14;;;;;;;26.80;13.32;;;;;;;12.05;75.76;98193.66;1731420;81;20968;-51
